Weather reports worldwide

Advertisment
Glasgow/Intl, United Kingdom (3140): temperature & dewpoint: 20.05.2019 19:00:00 - 26.05.2019 19:00:00 (BST)Glasgow/Intl, United Kingdom (3140): wind speed: 20.05.2019 19:00:00 - 26.05.2019 19:00:00 (BST)Glasgow/Intl, United Kingdom (3140): wind direction: 20.05.2019 19:00:00 - 26.05.2019 19:00:00 (BST)Glasgow/Intl, United Kingdom (3140): visibility: 20.05.2019 19:00:00 - 26.05.2019 19:00:00 (BST)
Date & Time tt [°C] td [°C] ff [km/h] ff [kn] dd vv [km]
26.05.2019 19:00:00 12,0 7,0 31 17 WSW 10
26.05.2019 18:00:00 13,0 7,0 28 15 WSW 10
26.05.2019 17:00:00 14,0 8,0 31 17 W 10
26.05.2019 16:00:00 14,0 8,0 34 18 W 10
26.05.2019 15:00:00 13,0 9,0 39 21 W 10
26.05.2019 14:00:00 13,0 11,0 34 18 W 10
26.05.2019 13:00:00 13,0 11,0 26 14 WSW 10
26.05.2019 12:00:00 13,0 11,0 24 13 WSW 10
26.05.2019 11:00:00 13,0 11,0 26 14 W 10
26.05.2019 10:00:00 14,0 12,0 28 15 W 10
26.05.2019 09:00:00 13,0 12,0 28 15 W 8
26.05.2019 08:00:00 14,0 12,0 22 12 WSW 10
26.05.2019 07:00:00 13,0 13,0 21 11 WSW 5
26.05.2019 06:00:00 13,0 13,0 22 12 SW 2,2
26.05.2019 05:00:00 13,0 13,0 8 4 WSW 10
26.05.2019 04:00:00 13,0 12,0 5 3 WSW 9
26.05.2019 03:00:00 13,0 12,0 13 7 SSW 7
26.05.2019 02:00:00 13,0 12,0 5 3 - 8
26.05.2019 01:00:00 13,0 12,0 16 9 SW 10
26.05.2019 00:00:00 13,0 12,0 18 10 SW 10
25.05.2019 23:00:00 13,0 12,0 16 9 SSW 10
25.05.2019 22:00:00 13,0 12,0 13 7 SW 10
25.05.2019 21:00:00 13,0 12,0 16 9 SW 10
25.05.2019 20:00:00 13,0 12,0 16 9 SW 10
25.05.2019 19:00:00 13,0 12,0 18 10 SW 10
25.05.2019 18:00:00 13,0 12,0 18 10 SW 10
25.05.2019 17:00:00 12,0 12,0 13 7 WSW 6
25.05.2019 16:00:00 11,0 11,0 13 7 SW 6
25.05.2019 15:00:00 11,0 10,0 16 9 SSW 10
25.05.2019 14:00:00 11,0 9,0 13 7 SW 8
25.05.2019 13:00:00 11,0 9,0 16 9 SW 10
25.05.2019 12:00:00 11,0 8,0 21 11 SW 10
25.05.2019 11:00:00 12,0 7,0 18 10 SW 10
25.05.2019 10:00:00 11,0 6,0 11 6 WSW 10
25.05.2019 09:00:00 11,0 6,0 15 8 WSW 10
25.05.2019 08:00:00 10,0 6,0 15 8 SW 10
25.05.2019 07:00:00 8,0 6,0 9 5 SW 10
25.05.2019 06:00:00 6,0 5,0 8 4 WSW 10
25.05.2019 05:00:00 6,0 4,0 5 3 SW 10
25.05.2019 04:00:00 6,0 4,0 9 5 SW 10
25.05.2019 03:00:00 6,0 4,0 9 5 SW 10
25.05.2019 02:00:00 7,0 5,0 8 4 W 10
25.05.2019 01:00:00 7,0 5,0 11 6 WSW 10
25.05.2019 00:00:00 7,0 5,0 13 7 WSW 10
24.05.2019 23:00:00 8,0 5,0 11 6 WSW 10
24.05.2019 22:00:00 10,0 5,0 13 7 W 10
24.05.2019 21:00:00 13,0 5,0 18 10 NW 10
24.05.2019 20:00:00 14,0 6,0 26 14 WNW 10
24.05.2019 19:00:00 14,0 6,0 28 15 WNW 10
24.05.2019 18:00:00 16,0 6,0 21 11 W 10
24.05.2019 17:00:00 16,0 6,0 21 11 W 10
24.05.2019 16:00:00 16,0 6,0 24 13 W 10
24.05.2019 15:00:00 16,0 6,0 24 13 WNW 10
24.05.2019 14:00:00 16,0 6,0 21 11 WNW 10
24.05.2019 13:00:00 15,0 6,0 18 10 WNW 10
24.05.2019 12:00:00 15,0 6,0 21 11 WNW 10
24.05.2019 11:00:00 13,0 6,0 22 12 WNW 10
24.05.2019 10:00:00 12,0 5,0 18 10 W 10
24.05.2019 09:00:00 10,0 5,0 24 13 W 10
24.05.2019 08:00:00 10,0 5,0 22 12 W 10
24.05.2019 07:00:00 10,0 5,0 18 10 W 10
24.05.2019 06:00:00 10,0 5,0 18 10 W 10
24.05.2019 05:00:00 9,0 6,0 9 5 WSW 10
24.05.2019 04:00:00 10,0 5,0 16 9 WSW 10
24.05.2019 03:00:00 10,0 5,0 15 8 W 10
24.05.2019 02:00:00 10,0 5,0 24 13 W 10
24.05.2019 01:00:00 10,0 6,0 24 13 W 10
24.05.2019 00:00:00 10,0 6,0 21 11 W 10
23.05.2019 23:00:00 10,0 6,0 21 11 W 10
23.05.2019 22:00:00 11,0 7,0 24 13 WSW 10
23.05.2019 21:00:00 12,0 7,0 21 11 W 10
23.05.2019 20:00:00 12,0 6,0 26 14 W 10
23.05.2019 19:00:00 12,0 7,0 18 10 W 10
23.05.2019 18:00:00 13,0 7,0 24 13 W 10
23.05.2019 17:00:00 13,0 7,0 24 13 W 10
23.05.2019 16:00:00 13,0 7,0 24 13 W 10
23.05.2019 15:00:00 13,0 7,0 22 12 W 10
23.05.2019 14:00:00 13,0 7,0 26 14 WSW 10
23.05.2019 13:00:00 13,0 7,0 26 14 WSW 10
23.05.2019 12:00:00 12,0 7,0 22 12 WSW 10
23.05.2019 11:00:00 12,0 7,0 21 11 WSW 10
23.05.2019 10:00:00 11,0 7,0 24 13 WSW 10
23.05.2019 09:00:00 11,0 7,0 24 13 WSW 10
23.05.2019 08:00:00 10,0 7,0 21 11 WSW 10
23.05.2019 07:00:00 9,0 7,0 16 9 SW 10
23.05.2019 06:00:00 9,0 6,0 15 8 SW 10
23.05.2019 05:00:00 8,0 6,0 16 9 SW 10
23.05.2019 04:00:00 7,0 5,0 8 4 SSW 10
23.05.2019 03:00:00 7,0 6,0 15 8 SW 10
23.05.2019 02:00:00 5,0 4,0 13 7 SW 10
23.05.2019 01:00:00 8,0 5,0 11 6 WSW 10
23.05.2019 00:00:00 8,0 5,0 11 6 WSW 10
22.05.2019 23:00:00 8,0 5,0 8 4 SW 10
22.05.2019 22:00:00 9,0 5,0 13 7 WSW 10
22.05.2019 21:00:00 11,0 6,0 16 9 W 10
22.05.2019 20:00:00 13,0 6,0 21 11 W 10
22.05.2019 19:00:00 13,0 6,0 18 10 W 10
22.05.2019 18:00:00 15,0 6,0 24 13 W 10
22.05.2019 17:00:00 14,0 6,0 26 14 W 10
22.05.2019 16:00:00 14,0 6,0 21 11 W 10
22.05.2019 15:00:00 15,0 6,0 18 10 W 10
22.05.2019 14:00:00 15,0 7,0 18 10 WNW 10
22.05.2019 13:00:00 13,0 6,0 18 10 W 10
22.05.2019 12:00:00 13,0 6,0 22 12 WNW 10
22.05.2019 11:00:00 14,0 6,0 22 12 W 10
22.05.2019 10:00:00 13,0 5,0 16 9 W 10
22.05.2019 09:00:00 12,0 6,0 16 9 W 10
22.05.2019 08:00:00 10,0 5,0 16 9 W 10
22.05.2019 07:00:00 8,0 5,0 9 5 SW 10
22.05.2019 06:00:00 4,0 3,0 9 5 SW 10
22.05.2019 05:00:00 3,0 2,0 9 5 WSW 10
22.05.2019 04:00:00 4,0 3,0 11 6 WSW 10
22.05.2019 03:00:00 4,0 2,0 9 5 WSW 10
22.05.2019 02:00:00 5,0 3,0 11 6 WSW 10
22.05.2019 01:00:00 4,0 3,0 13 7 WSW 10
22.05.2019 00:00:00 4,0 2,0 11 6 SW 10
21.05.2019 23:00:00 8,0 3,0 4 2 - 10
21.05.2019 22:00:00 10,0 4,0 9 5 W 10
21.05.2019 21:00:00 12,0 4,0 15 8 W 10
21.05.2019 20:00:00 13,0 5,0 18 10 W 10
21.05.2019 19:00:00 14,0 5,0 22 12 WNW 10
21.05.2019 18:00:00 15,0 5,0 24 13 WNW 10
21.05.2019 17:00:00 17,0 5,0 24 13 WSW 10
21.05.2019 16:00:00 17,0 5,0 26 14 W 10
21.05.2019 15:00:00 15,0 5,0 13 7 NW 10
21.05.2019 14:00:00 15,0 5,0 15 8 WNW 10
21.05.2019 13:00:00 16,0 7,0 13 7 W 10
21.05.2019 12:00:00 15,0 7,0 15 8 W 10
21.05.2019 11:00:00 14,0 5,0 16 9 WNW 10
21.05.2019 10:00:00 14,0 6,0 18 10 WNW 10
21.05.2019 09:00:00 13,0 7,0 13 7 WNW 10
21.05.2019 08:00:00 11,0 7,0 15 8 W 10
21.05.2019 07:00:00 9,0 7,0 5 3 SSW 10
21.05.2019 06:00:00 6,0 5,0 11 6 SW 10
21.05.2019 05:00:00 8,0 7,0 13 7 WSW 10
21.05.2019 04:00:00 8,0 7,0 11 6 WSW 10
21.05.2019 03:00:00 9,0 7,0 13 7 WSW 10
21.05.2019 02:00:00 9,0 7,0 9 5 WSW 10
21.05.2019 01:00:00 10,0 7,0 9 5 WSW 10
21.05.2019 00:00:00 9,0 7,0 11 6 SW 10
20.05.2019 23:00:00 11,0 7,0 11 6 W 10
20.05.2019 22:00:00 12,0 8,0 13 7 W 10
20.05.2019 21:00:00 13,0 8,0 13 7 W 10
20.05.2019 20:00:00 13,0 8,0 16 9 W 10
20.05.2019 19:00:00 14,0 8,0 15 8 WNW 10

tt = temperature
td = dewpoint
ff = wind speed
dd = wind direction
vv = visibility

Next stations